Terminal Aerodrome Forecast
Issued by NWS

Home | Current Version | Previous Version | Graphics & Text | Print | Product List | Glossary On
Versions: 1 2 3 4 5 6 7 8 9 10 11 12 13 14 15 16 17 18 19
000
FTUS43 KABR 260600 AAA
TAFATY
TAF AMD
KATY 260655Z 2607/2706 VRB04KT 2SM BR SCT250
      TEMPO 2607/2611 1/4SM FG VV004
     FM261400 24010KT P6SM BKN150
     FM261800 28017G25KT P6SM FEW050
     FM270200 30010KT P6SM SKC=

USA.gov is the U.S. government's official web portal to all federal, state and local government web resources and services.